createdAt,value
2023-01-25T00:00:06.500Z,7.08
2023-01-25T00:01:14.456Z,7.00
2023-01-25T00:01:48.523Z,7.15
2023-01-25T00:02:35.486Z,6.99
2023-01-25T00:03:16.520Z,7.07
2023-01-25T00:04:11.408Z,7.03
2023-01-25T00:05:06.790Z,7.00
2023-01-25T00:06:01.449Z,7.02
2023-01-25T00:06:55.399Z,7.06
2023-01-25T00:07:49.431Z,7.03
2023-01-25T00:08:36.496Z,7.09
2023-01-25T00:09:11.556Z,7.01
2023-01-25T00:09:58.419Z,7.07
2023-01-25T00:10:32.504Z,7.08
2023-01-25T00:11:19.473Z,6.95
2023-01-25T00:11:56.294Z,6.95
2023-01-25T00:12:43.404Z,7.01
2023-01-25T00:13:17.565Z,7.00
2023-01-25T00:14:00.444Z,7.07
2023-01-25T00:14:40.494Z,7.02
2023-01-25T00:15:21.397Z,7.00
2023-01-25T00:16:10.528Z,7.02
2023-01-25T00:16:51.473Z,7.04
2023-01-25T00:17:33.469Z,7.01
2023-01-25T00:18:13.410Z,7.06
2023-01-25T00:18:54.511Z,7.00
2023-01-25T00:19:34.436Z,7.07
2023-01-25T00:20:15.457Z,7.06
2023-01-25T00:20:55.421Z,7.14
2023-01-25T00:21:35.478Z,7.09
2023-01-25T00:22:16.390Z,7.15
2023-01-25T00:22:56.462Z,7.14
2023-01-25T00:23:41.378Z,7.15
2023-01-25T00:24:23.246Z,7.00
2023-01-25T00:25:03.435Z,7.04
2023-01-25T00:25:43.446Z,7.10
2023-01-25T00:26:24.439Z,7.10
2023-01-25T00:27:04.482Z,7.14
2023-01-25T00:27:44.374Z,7.13
2023-01-25T00:28:24.492Z,7.17
2023-01-25T00:29:05.403Z,7.25
2023-01-25T00:29:45.450Z,7.16
2023-01-25T00:30:26.445Z,7.23
2023-01-25T00:31:08.405Z,7.26
2023-01-25T00:32:07.534Z,7.26
2023-01-25T00:33:13.456Z,7.23
2023-01-25T00:34:08.409Z,7.23
2023-01-25T00:34:54.434Z,7.22
2023-01-25T00:35:39.404Z,7.25
2023-01-25T00:36:44.508Z,7.28
2023-01-25T00:37:24.596Z,7.27
2023-01-25T00:38:09.459Z,7.12
2023-01-25T00:38:50.398Z,7.16
2023-01-25T00:39:32.468Z,7.06
2023-01-25T00:40:15.391Z,7.12
2023-01-25T00:40:56.402Z,7.14
2023-01-25T00:41:30.430Z,7.14
2023-01-25T00:42:18.394Z,7.12
2023-01-25T00:42:52.452Z,7.14
2023-01-25T00:43:39.367Z,7.14
2023-01-25T00:44:13.477Z,7.05
2023-01-25T00:45:00.458Z,7.05
2023-01-25T00:45:34.501Z,6.91
2023-01-25T00:46:23.425Z,6.89
2023-01-25T00:46:57.442Z,6.92
2023-01-25T00:47:44.381Z,6.97
2023-01-25T00:48:18.444Z,6.92
2023-01-25T00:49:05.368Z,7.03
2023-01-25T00:49:39.485Z,7.02
2023-01-25T00:50:26.348Z,7.06
2023-01-25T00:51:00.443Z,7.00
2023-01-25T00:51:47.412Z,7.06
2023-01-25T00:52:23.018Z,7.08
2023-01-25T00:53:10.357Z,7.08
2023-01-25T00:53:44.434Z,7.05
2023-01-25T00:54:32.351Z,7.09
2023-01-25T00:55:06.672Z,7.12
2023-01-25T00:56:02.351Z,7.08
2023-01-25T00:56:36.409Z,7.13
2023-01-25T00:57:17.403Z,7.18
2023-01-25T00:57:57.434Z,7.22
2023-01-25T00:58:37.397Z,7.26
2023-01-25T00:59:18.443Z,7.23
2023-01-25T00:59:58.338Z,7.27
2023-01-25T01:00:38.487Z,7.24
2023-01-25T01:01:19.443Z,7.32
2023-01-25T01:02:00.475Z,7.19
2023-01-25T01:02:41.360Z,7.25
2023-01-25T01:03:23.397Z,7.26
2023-01-25T01:04:05.622Z,7.19
2023-01-25T01:04:46.631Z,7.16
2023-01-25T01:05:26.374Z,7.17
2023-01-25T01:06:13.423Z,7.19
2023-01-25T01:06:53.338Z,7.23
2023-01-25T01:07:34.427Z,7.26
2023-01-25T01:08:14.352Z,7.19
2023-01-25T01:08:54.398Z,7.27
2023-01-25T01:09:34.302Z,7.17
2023-01-25T01:10:15.413Z,7.24
2023-01-25T01:10:56.324Z,7.18
2023-01-25T01:11:37.584Z,7.17
2023-01-25T01:12:17.342Z,7.13
2023-01-25T01:12:58.430Z,7.13
2023-01-25T01:13:39.370Z,7.13
2023-01-25T01:14:21.442Z,7.07
2023-01-25T01:15:03.360Z,7.06
2023-01-25T01:15:44.381Z,7.05
2023-01-25T01:16:24.383Z,7.10
2023-01-25T01:17:04.452Z,7.10
2023-01-25T01:17:44.366Z,7.13
2023-01-25T01:18:24.454Z,7.14
2023-01-25T01:19:04.338Z,7.04
2023-01-25T01:19:44.381Z,7.11
2023-01-25T01:20:24.336Z,7.13
2023-01-25T01:21:04.430Z,7.14
2023-01-25T01:21:44.345Z,7.12
2023-01-25T01:22:24.651Z,7.07
2023-01-25T01:23:04.339Z,7.15
2023-01-25T01:23:44.439Z,7.16
2023-01-25T01:24:25.481Z,7.13
2023-01-25T01:25:05.402Z,7.07
2023-01-25T01:25:45.343Z,6.97
2023-01-25T01:26:25.425Z,7.13
2023-01-25T01:27:05.348Z,7.14
2023-01-25T01:27:45.382Z,7.06
2023-01-25T01:28:25.309Z,7.05
2023-01-25T01:29:05.401Z,7.01
2023-01-25T01:29:45.357Z,7.08
2023-01-25T01:30:39.341Z,7.12
2023-01-25T01:31:38.446Z,7.07
2023-01-25T01:32:32.464Z,7.12
2023-01-25T01:33:26.341Z,6.96
2023-01-25T01:34:20.354Z,7.19
2023-01-25T01:35:07.548Z,7.18
2023-01-25T01:35:41.525Z,7.26
2023-01-25T01:36:31.325Z,7.26
2023-01-25T01:37:05.377Z,7.15
2023-01-25T01:37:52.312Z,7.18
2023-01-25T01:38:26.398Z,7.08
2023-01-25T01:39:13.315Z,7.15
2023-01-25T01:39:47.498Z,7.05
2023-01-25T01:40:28.363Z,7.03
2023-01-25T01:41:08.355Z,7.01
2023-01-25T01:41:49.327Z,7.05
2023-01-25T01:42:29.372Z,6.95
2023-01-25T01:43:13.343Z,7.08
2023-01-25T01:43:53.380Z,7.06
2023-01-25T01:45:09.626Z,7.00
2023-01-25T01:45:51.363Z,7.11
2023-01-25T01:46:40.365Z,7.12
2023-01-25T01:47:48.286Z,7.10
2023-01-25T01:49:05.347Z,7.09
2023-01-25T01:50:00.303Z,7.06
2023-01-25T01:50:34.363Z,7.05
2023-01-25T01:51:56.309Z,7.09
2023-01-25T01:52:40.398Z,7.07
2023-01-25T01:53:21.311Z,7.03
2023-01-25T01:54:51.386Z,7.06
2023-01-25T01:55:32.283Z,7.01
2023-01-25T01:56:18.386Z,7.13
2023-01-25T01:57:17.328Z,7.11
2023-01-25T01:58:03.711Z,7.10
2023-01-25T01:58:43.300Z,7.02
2023-01-25T01:59:24.363Z,7.15
2023-01-25T02:00:20.317Z,7.12
2023-01-25T02:01:00.367Z,7.07
2023-01-25T02:01:41.328Z,7.06
2023-01-25T02:02:29.444Z,7.13
2023-01-25T02:03:25.301Z,7.17
2023-01-25T02:04:20.288Z,7.24
2023-01-25T02:05:19.295Z,7.22
2023-01-25T02:06:29.298Z,7.23
2023-01-25T02:07:41.355Z,7.19
2023-01-25T02:08:35.271Z,7.15
2023-01-25T02:09:35.313Z,6.94
2023-01-25T02:10:29.322Z,6.90
2023-01-25T02:11:25.292Z,7.04
2023-01-25T02:12:20.287Z,7.09
2023-01-25T02:13:02.298Z,7.11
2023-01-25T02:13:43.419Z,7.09
2023-01-25T02:14:24.263Z,7.09
2023-01-25T02:15:04.406Z,7.11
2023-01-25T02:15:54.355Z,7.08
2023-01-25T02:16:35.359Z,7.02
2023-01-25T02:17:17.306Z,6.88
2023-01-25T02:17:58.387Z,6.91
2023-01-25T02:18:38.281Z,6.89
2023-01-25T02:19:44.351Z,6.78
2023-01-25T02:20:50.326Z,6.83
2023-01-25T02:21:52.322Z,6.78
2023-01-25T02:22:58.356Z,6.82
2023-01-25T02:24:12.380Z,6.85
2023-01-25T02:25:34.283Z,6.85
2023-01-25T02:26:29.303Z,6.84
2023-01-25T02:27:23.291Z,6.84
2023-01-25T02:28:40.330Z,6.86
2023-01-25T02:29:30.325Z,6.90
2023-01-25T02:30:04.337Z,6.90
2023-01-25T02:30:52.485Z,6.82
2023-01-25T02:31:26.397Z,7.00
2023-01-25T02:32:14.452Z,6.98
2023-01-25T02:32:48.298Z,7.00
2023-01-25T02:33:35.234Z,6.98
2023-01-25T02:34:09.301Z,6.95
2023-01-25T02:34:50.234Z,6.99
2023-01-25T02:35:53.765Z,6.98
2023-01-25T02:36:41.431Z,6.98
2023-01-25T02:37:22.490Z,6.85
2023-01-25T02:38:02.257Z,6.93
2023-01-25T02:38:58.297Z,6.96
2023-01-25T02:39:39.270Z,6.93
2023-01-25T02:40:20.368Z,7.01
2023-01-25T02:41:14.289Z,6.97
2023-01-25T02:42:01.249Z,6.92
2023-01-25T02:42:37.320Z,6.91
2023-01-25T02:43:25.245Z,7.00
2023-01-25T02:43:59.611Z,6.99
2023-01-25T02:44:46.249Z,7.00
2023-01-25T02:45:30.324Z,7.00
2023-01-25T02:46:36.388Z,7.02
2023-01-25T02:47:30.261Z,7.04
2023-01-25T02:48:24.249Z,7.11
2023-01-25T02:49:20.260Z,7.12
2023-01-25T02:50:15.820Z,7.07
2023-01-25T02:50:56.269Z,7.06
2023-01-25T02:51:39.340Z,7.02
2023-01-25T02:52:20.263Z,6.97
2023-01-25T02:53:00.304Z,6.96
2023-01-25T02:53:41.237Z,6.96
2023-01-25T02:54:24.273Z,6.88
2023-01-25T02:55:04.260Z,6.90
2023-01-25T02:55:44.414Z,6.97
2023-01-25T02:56:25.275Z,6.96
2023-01-25T02:57:06.327Z,6.94
2023-01-25T02:57:46.248Z,6.96
2023-01-25T02:58:26.275Z,6.89
2023-01-25T02:59:12.224Z,6.91
2023-01-25T02:59:52.271Z,6.89
2023-01-25T03:00:32.266Z,6.93
2023-01-25T03:01:12.550Z,6.93
2023-01-25T03:01:53.368Z,6.93
2023-01-25T03:02:33.458Z,6.68
2023-01-25T03:03:13.303Z,6.83
2023-01-25T03:03:53.407Z,6.83
2023-01-25T03:04:33.218Z,6.80
2023-01-25T03:05:13.279Z,6.83
2023-01-25T03:05:53.234Z,6.95
2023-01-25T03:06:33.257Z,6.85
2023-01-25T03:07:13.262Z,6.95
2023-01-25T03:07:53.271Z,6.93
2023-01-25T03:08:34.235Z,6.91
2023-01-25T03:09:17.278Z,6.93
2023-01-25T03:09:57.224Z,6.92
2023-01-25T03:10:37.288Z,6.97
2023-01-25T03:11:18.235Z,6.99
2023-01-25T03:11:58.261Z,7.02
2023-01-25T03:12:38.236Z,6.98
2023-01-25T03:13:18.272Z,6.98
2023-01-25T03:13:59.222Z,6.95
2023-01-25T03:14:39.333Z,7.06
2023-01-25T03:15:19.229Z,7.06
2023-01-25T03:16:00.350Z,7.06
2023-01-25T03:16:40.190Z,7.06
2023-01-25T03:17:20.270Z,7.04
2023-01-25T03:18:04.480Z,7.14
2023-01-25T03:18:46.291Z,7.15
2023-01-25T03:19:26.198Z,7.15
2023-01-25T03:20:06.313Z,7.10
2023-01-25T03:20:47.226Z,7.08
2023-01-25T03:21:41.252Z,7.03
2023-01-25T03:22:35.250Z,6.95
2023-01-25T03:23:22.246Z,6.93
2023-01-25T03:24:06.304Z,6.94
2023-01-25T03:24:53.212Z,6.92
2023-01-25T03:25:27.254Z,6.89
2023-01-25T03:26:27.210Z,6.82
2023-01-25T03:27:18.391Z,6.88
2023-01-25T03:28:05.207Z,6.81
2023-01-25T03:28:46.244Z,6.83
2023-01-25T03:29:40.214Z,6.82
2023-01-25T03:30:34.196Z,6.81
2023-01-25T03:31:30.331Z,6.68
2023-01-25T03:32:25.273Z,6.88
2023-01-25T03:33:19.229Z,6.94
2023-01-25T03:34:06.248Z,6.89
2023-01-25T03:34:40.306Z,6.91
2023-01-25T03:35:27.255Z,7.00
2023-01-25T03:36:02.340Z,7.03
2023-01-25T03:36:49.200Z,7.04
2023-01-25T03:37:23.300Z,7.02
2023-01-25T03:38:10.198Z,7.07
2023-01-25T03:38:44.264Z,7.05
2023-01-25T03:39:31.208Z,7.14
2023-01-25T03:40:05.670Z,7.14
2023-01-25T03:40:52.251Z,7.08
2023-01-25T03:41:26.265Z,7.04
2023-01-25T03:42:13.203Z,6.96
2023-01-25T03:42:47.255Z,7.02
2023-01-25T03:43:35.181Z,6.98
2023-01-25T03:44:11.443Z,6.92
2023-01-25T03:44:51.238Z,6.87
2023-01-25T03:45:31.288Z,6.89
2023-01-25T03:46:12.180Z,6.86
2023-01-25T03:46:52.327Z,6.93
2023-01-25T03:47:32.214Z,6.87
2023-01-25T03:48:13.278Z,6.96
2023-01-25T03:48:53.171Z,6.92
2023-01-25T03:49:33.266Z,6.91
2023-01-25T03:50:14.187Z,6.87
2023-01-25T03:51:03.407Z,6.81
2023-01-25T03:51:43.211Z,6.69
2023-01-25T03:52:26.501Z,6.63
2023-01-25T03:53:35.219Z,6.63
2023-01-25T03:54:15.229Z,6.67
2023-01-25T03:54:55.191Z,6.64
2023-01-25T03:55:35.201Z,6.64
2023-01-25T03:56:19.834Z,6.66
2023-01-25T03:57:07.189Z,6.67
2023-01-25T03:57:41.255Z,6.71
2023-01-25T03:58:28.171Z,6.68
2023-01-25T03:59:02.234Z,6.72
2023-01-25T03:59:49.206Z,6.81
2023-01-25T04:00:24.256Z,6.84
2023-01-25T04:01:07.319Z,6.80
2023-01-25T04:01:47.276Z,6.89
2023-01-25T04:02:27.381Z,6.95
2023-01-25T04:03:07.239Z,6.97
2023-01-25T04:03:47.158Z,6.93
2023-01-25T04:04:27.241Z,6.98
2023-01-25T04:05:08.410Z,6.95
2023-01-25T04:05:49.240Z,6.87
2023-01-25T04:06:29.207Z,6.87
2023-01-25T04:07:09.256Z,6.96
2023-01-25T04:07:49.157Z,6.90
2023-01-25T04:08:31.233Z,6.91
2023-01-25T04:09:12.193Z,6.99
2023-01-25T04:09:52.336Z,6.89
2023-01-25T04:10:33.131Z,7.01
2023-01-25T04:11:16.218Z,6.97
2023-01-25T04:11:57.194Z,6.91
2023-01-25T04:12:37.328Z,6.99
2023-01-25T04:13:18.149Z,7.01
2023-01-25T04:13:58.211Z,6.97
2023-01-25T04:14:44.344Z,6.99
2023-01-25T04:15:25.250Z,7.00
2023-01-25T04:16:05.185Z,7.14
2023-01-25T04:16:45.304Z,7.13
2023-01-25T04:17:26.165Z,7.13
2023-01-25T04:18:20.179Z,7.14
2023-01-25T04:19:14.188Z,7.13
2023-01-25T04:20:08.162Z,7.13
2023-01-25T04:21:09.169Z,7.03
2023-01-25T04:22:03.174Z,6.98
2023-01-25T04:22:50.148Z,6.91
2023-01-25T04:23:24.178Z,6.90
2023-01-25T04:24:12.226Z,6.73
2023-01-25T04:24:46.219Z,6.87
2023-01-25T04:25:33.183Z,6.86
2023-01-25T04:26:12.364Z,6.86
2023-01-25T04:26:59.168Z,6.90
2023-01-25T04:27:33.301Z,6.83
2023-01-25T04:28:13.194Z,6.79
2023-01-25T04:28:53.261Z,6.90
2023-01-25T04:29:41.221Z,6.86
2023-01-25T04:30:22.194Z,6.88
2023-01-25T04:31:03.129Z,6.91
2023-01-25T04:31:43.358Z,6.89
2023-01-25T04:32:23.312Z,6.62
2023-01-25T04:33:03.424Z,6.78
2023-01-25T04:33:43.151Z,6.79
2023-01-25T04:34:24.145Z,6.87
2023-01-25T04:35:05.151Z,6.83
2023-01-25T04:35:45.246Z,6.81
2023-01-25T04:36:25.159Z,6.82
2023-01-25T04:37:05.188Z,6.80
2023-01-25T04:37:45.123Z,6.81
2023-01-25T04:38:26.189Z,6.80
2023-01-25T04:39:06.164Z,6.83
2023-01-25T04:39:46.235Z,6.78
2023-01-25T04:40:26.179Z,6.85
2023-01-25T04:41:06.184Z,6.80
2023-01-25T04:41:46.145Z,6.67
2023-01-25T04:42:27.205Z,6.79
2023-01-25T04:43:07.160Z,6.76
2023-01-25T04:43:47.385Z,6.82
2023-01-25T04:44:27.164Z,6.76
2023-01-25T04:45:07.746Z,6.80
2023-01-25T04:45:49.172Z,6.78
2023-01-25T04:46:30.187Z,6.79
2023-01-25T04:47:10.132Z,6.75
2023-01-25T04:47:50.250Z,6.76
2023-01-25T04:48:30.105Z,6.83
2023-01-25T04:49:10.195Z,6.82
2023-01-25T04:49:50.193Z,6.86
2023-01-25T04:50:32.279Z,6.85
2023-01-25T04:51:12.110Z,6.85
2023-01-25T04:51:52.214Z,6.91
2023-01-25T04:52:33.147Z,6.92
2023-01-25T04:53:14.180Z,6.95
2023-01-25T04:53:54.132Z,6.97
2023-01-25T04:54:34.212Z,6.99
2023-01-25T04:55:15.125Z,6.83
2023-01-25T04:55:55.157Z,6.99
2023-01-25T04:56:35.111Z,6.89
2023-01-25T04:57:15.178Z,6.98
2023-01-25T04:57:58.102Z,6.93
2023-01-25T04:58:38.188Z,6.95
2023-01-25T04:59:18.113Z,6.96
2023-01-25T04:59:58.164Z,6.90
2023-01-25T05:00:39.173Z,6.92
2023-01-25T05:01:19.228Z,6.96
2023-01-25T05:01:59.139Z,7.00
2023-01-25T05:02:40.213Z,7.05
2023-01-25T05:03:21.121Z,7.04
2023-01-25T05:04:01.176Z,6.97
2023-01-25T05:04:41.142Z,7.05
2023-01-25T05:05:21.163Z,7.11
2023-01-25T05:06:02.162Z,7.10
2023-01-25T05:06:42.179Z,7.06
2023-01-25T05:07:23.123Z,7.16
2023-01-25T05:08:03.147Z,7.22
2023-01-25T05:08:43.097Z,7.23
2023-01-25T05:09:23.221Z,7.14
2023-01-25T05:10:03.090Z,7.23
2023-01-25T05:10:43.186Z,7.09
2023-01-25T05:11:24.134Z,7.07
2023-01-25T05:12:05.727Z,7.05
2023-01-25T05:12:46.110Z,6.99
2023-01-25T05:13:26.151Z,6.97
2023-01-25T05:14:06.104Z,6.91
2023-01-25T05:14:47.170Z,6.92
2023-01-25T05:15:28.111Z,7.01
2023-01-25T05:16:09.127Z,7.02
2023-01-25T05:16:50.222Z,7.00
2023-01-25T05:17:44.145Z,7.04
2023-01-25T05:18:48.029Z,7.05
2023-01-25T05:19:43.127Z,7.08
2023-01-25T05:20:37.169Z,7.08
2023-01-25T05:21:49.112Z,7.06
2023-01-25T05:22:30.114Z,7.07
2023-01-25T05:23:10.143Z,7.10
2023-01-25T05:23:51.091Z,7.10
2023-01-25T05:24:33.238Z,7.02
2023-01-25T05:25:34.124Z,7.13
2023-01-25T05:26:34.071Z,7.10
2023-01-25T05:27:16.124Z,7.19
2023-01-25T05:27:57.122Z,7.15
2023-01-25T05:28:38.160Z,7.17
2023-01-25T05:29:18.159Z,7.17
2023-01-25T05:29:58.076Z,7.14
2023-01-25T05:30:38.181Z,7.13
2023-01-25T05:31:18.241Z,7.15
2023-01-25T05:31:58.331Z,7.16
2023-01-25T05:32:39.325Z,7.16
2023-01-25T05:33:19.229Z,7.14
2023-01-25T05:33:59.063Z,7.14
2023-01-25T05:34:54.072Z,7.09
2023-01-25T05:35:48.072Z,7.15
2023-01-25T05:36:42.062Z,7.18
2023-01-25T05:37:36.097Z,7.20
2023-01-25T05:38:16.098Z,7.21
2023-01-25T05:38:56.153Z,7.18
2023-01-25T05:39:37.088Z,7.21
2023-01-25T05:40:18.167Z,7.14
2023-01-25T05:40:58.084Z,7.19
2023-01-25T05:41:38.114Z,7.17
2023-01-25T05:42:24.082Z,7.08
2023-01-25T05:43:05.108Z,7.17
2023-01-25T05:43:45.114Z,7.05
2023-01-25T05:44:25.157Z,7.15
2023-01-25T05:45:05.103Z,7.15
2023-01-25T05:45:46.153Z,7.02
2023-01-25T05:46:26.119Z,7.14
2023-01-25T05:47:06.238Z,7.10
2023-01-25T05:47:46.050Z,7.18
2023-01-25T05:48:26.144Z,7.18
2023-01-25T05:49:06.084Z,7.14
2023-01-25T05:49:47.107Z,7.19
2023-01-25T05:50:28.088Z,7.16
2023-01-25T05:51:08.140Z,7.05
2023-01-25T05:51:49.088Z,6.98
2023-01-25T05:52:29.157Z,7.17
2023-01-25T05:53:09.057Z,7.19
2023-01-25T05:53:49.098Z,7.16
2023-01-25T05:54:29.099Z,7.22
2023-01-25T05:55:09.327Z,7.16
2023-01-25T05:55:49.293Z,7.18
2023-01-25T05:56:30.322Z,7.16
2023-01-25T05:57:11.150Z,7.18
2023-01-25T05:57:52.175Z,7.17
2023-01-25T05:58:32.069Z,7.23
2023-01-25T05:59:12.179Z,7.26
2023-01-25T05:59:52.112Z,7.18
2023-01-25T06:00:32.121Z,7.14
2023-01-25T06:01:14.048Z,7.06
2023-01-25T06:01:54.110Z,7.17
2023-01-25T06:02:34.047Z,7.20
2023-01-25T06:03:14.283Z,7.01
2023-01-25T06:03:55.039Z,7.22
2023-01-25T06:04:35.132Z,7.30
2023-01-25T06:05:16.055Z,7.13
2023-01-25T06:06:03.194Z,7.31
2023-01-25T06:06:43.012Z,7.31
2023-01-25T06:07:24.704Z,7.21
2023-01-25T06:08:06.037Z,7.25
2023-01-25T06:08:47.078Z,7.23
2023-01-25T06:09:27.027Z,7.22
2023-01-25T06:10:07.638Z,7.25
2023-01-25T06:10:48.051Z,7.20
2023-01-25T06:11:30.090Z,7.16
2023-01-25T06:12:12.048Z,7.19
2023-01-25T06:12:52.176Z,7.21
2023-01-25T06:13:32.042Z,7.13
2023-01-25T06:14:13.196Z,7.15
2023-01-25T06:14:54.028Z,7.14
2023-01-25T06:15:34.082Z,7.10
2023-01-25T06:16:15.075Z,7.10
2023-01-25T06:16:55.116Z,7.01
2023-01-25T06:17:35.014Z,7.05
2023-01-25T06:18:15.071Z,7.06
2023-01-25T06:18:55.032Z,7.02
2023-01-25T06:19:35.107Z,7.01
2023-01-25T06:20:16.065Z,6.97
2023-01-25T06:20:56.077Z,6.97
2023-01-25T06:21:36.485Z,7.01
2023-01-25T06:22:17.099Z,6.92
2023-01-25T06:23:11.026Z,6.98
2023-01-25T06:24:05.158Z,6.92
2023-01-25T06:24:59.034Z,6.93
2023-01-25T06:25:53.008Z,7.04
2023-01-25T06:26:48.053Z,7.02
2023-01-25T06:27:42.005Z,7.13
2023-01-25T06:28:36.015Z,7.07
2023-01-25T06:29:30.039Z,7.09
2023-01-25T06:30:25.005Z,7.09
2023-01-25T06:31:25.326Z,7.14
2023-01-25T06:32:12.065Z,7.12
2023-01-25T06:32:46.089Z,7.13
2023-01-25T06:33:33.053Z,7.11
2023-01-25T06:34:08.486Z,7.11
2023-01-25T06:34:54.969Z,7.11
2023-01-25T06:35:29.145Z,7.01
2023-01-25T06:36:22.014Z,7.01
2023-01-25T06:36:56.078Z,7.02
2023-01-25T06:37:36.220Z,7.06
2023-01-25T06:38:16.036Z,7.01
2023-01-25T06:38:59.012Z,6.93
2023-01-25T06:39:39.084Z,6.86
2023-01-25T06:40:19.006Z,6.83
2023-01-25T06:40:59.202Z,6.74
2023-01-25T06:41:38.996Z,6.78
2023-01-25T06:42:19.110Z,6.72
2023-01-25T06:43:00.015Z,6.71
2023-01-25T06:43:41.114Z,6.62
2023-01-25T06:44:20.993Z,6.65
2023-01-25T06:45:01.071Z,6.63
2023-01-25T06:45:40.993Z,6.64
2023-01-25T06:46:21.053Z,6.61
2023-01-25T06:47:01.975Z,6.61
2023-01-25T06:47:42.110Z,6.51
2023-01-25T06:48:21.977Z,6.52
2023-01-25T06:49:02.087Z,6.53
2023-01-25T06:49:41.982Z,6.50
2023-01-25T06:50:22.266Z,6.45
2023-01-25T06:51:08.986Z,6.50
2023-01-25T06:51:49.048Z,6.48
2023-01-25T06:52:29.014Z,6.51
2023-01-25T06:53:09.082Z,6.46
2023-01-25T06:53:52.030Z,6.60
2023-01-25T06:54:32.026Z,6.60
2023-01-25T06:55:14.982Z,6.60
2023-01-25T06:55:55.100Z,6.67
2023-01-25T06:56:34.973Z,6.68
2023-01-25T06:57:15.098Z,6.65
2023-01-25T06:57:56.021Z,6.68
2023-01-25T06:58:37.327Z,6.78
2023-01-25T06:59:18.016Z,6.80
2023-01-25T06:59:58.087Z,6.68
2023-01-25T07:00:37.977Z,6.77
2023-01-25T07:01:30.477Z,6.78
2023-01-25T07:02:10.983Z,6.86
2023-01-25T07:02:51.157Z,6.88
2023-01-25T07:03:31.974Z,6.89
2023-01-25T07:04:12.366Z,6.77
2023-01-25T07:04:52.017Z,6.79
2023-01-25T07:05:32.007Z,6.94
2023-01-25T07:06:14.974Z,6.93
2023-01-25T07:06:55.025Z,6.93
2023-01-25T07:07:35.967Z,6.98
2023-01-25T07:08:16.838Z,6.99
2023-01-25T07:08:58.981Z,6.91
2023-01-25T07:09:39.057Z,6.96
2023-01-25T07:10:19.984Z,6.88
2023-01-25T07:11:09.533Z,6.91
2023-01-25T07:11:50.942Z,6.92
2023-01-25T07:12:32.334Z,6.95
2023-01-25T07:13:11.939Z,6.95
2023-01-25T07:13:53.016Z,6.96
2023-01-25T07:14:32.941Z,6.98
2023-01-25T07:15:27.031Z,6.97
2023-01-25T07:16:25.945Z,6.83
2023-01-25T07:17:20.062Z,7.08
2023-01-25T07:18:16.580Z,7.11
2023-01-25T07:19:10.956Z,7.07
2023-01-25T07:20:04.964Z,7.10
2023-01-25T07:20:52.023Z,7.11
2023-01-25T07:21:30.090Z,7.14
2023-01-25T07:22:16.984Z,7.22
2023-01-25T07:22:51.019Z,7.07
2023-01-25T07:23:39.975Z,7.08
2023-01-25T07:24:14.068Z,7.04
2023-01-25T07:25:03.950Z,7.12
2023-01-25T07:25:38.003Z,7.01
2023-01-25T07:26:25.009Z,7.05
2023-01-25T07:27:04.997Z,7.11
2023-01-25T07:27:44.934Z,7.08
2023-01-25T07:28:25.427Z,7.12
2023-01-25T07:29:05.972Z,7.17
2023-01-25T07:29:45.995Z,7.17
2023-01-25T07:30:28.041Z,7.09
2023-01-25T07:31:15.270Z,7.12
2023-01-25T07:31:56.031Z,7.10
2023-01-25T07:32:36.027Z,7.06
2023-01-25T07:33:18.920Z,7.04
2023-01-25T07:34:01.970Z,7.00
2023-01-25T07:34:42.975Z,7.02
2023-01-25T07:35:22.988Z,6.95
2023-01-25T07:36:10.962Z,7.06
2023-01-25T07:36:51.013Z,6.98
2023-01-25T07:37:33.964Z,6.97
2023-01-25T07:38:14.864Z,6.94
2023-01-25T07:38:55.940Z,6.99
2023-01-25T07:39:36.426Z,6.94
2023-01-25T07:40:16.931Z,6.86
2023-01-25T07:40:59.975Z,7.02
2023-01-25T07:41:39.925Z,7.14
2023-01-25T07:42:19.970Z,7.08
2023-01-25T07:43:00.962Z,7.07
2023-01-25T07:43:41.199Z,7.09
2023-01-25T07:44:21.937Z,7.15
2023-01-25T07:45:02.333Z,7.19
2023-01-25T07:45:41.913Z,7.11
2023-01-25T07:46:21.973Z,7.13
2023-01-25T07:47:02.934Z,7.14
2023-01-25T07:47:43.007Z,7.15
2023-01-25T07:48:24.943Z,7.14
2023-01-25T07:49:05.116Z,7.17
2023-01-25T07:49:45.980Z,7.22
2023-01-25T07:50:26.102Z,7.25
2023-01-25T07:51:43.933Z,7.28
2023-01-25T07:52:24.318Z,7.23
2023-01-25T07:53:04.918Z,7.28
2023-01-25T07:53:49.927Z,7.31
2023-01-25T07:54:24.022Z,7.26
2023-01-25T07:55:12.187Z,7.39
2023-01-25T07:55:45.990Z,7.34
2023-01-25T07:56:42.915Z,7.23
2023-01-25T07:57:17.013Z,7.19
2023-01-25T07:58:03.944Z,7.23
2023-01-25T07:58:37.956Z,7.16
2023-01-25T07:59:18.966Z,7.23
2023-01-25T07:59:58.950Z,7.27
2023-01-25T08:00:39.920Z,7.22
2023-01-25T08:01:23.969Z,7.22
2023-01-25T08:02:03.920Z,7.27
2023-01-25T08:02:44.046Z,7.24
2023-01-25T08:03:24.106Z,7.14
2023-01-25T08:04:06.053Z,7.07
2023-01-25T08:04:48.925Z,7.17
2023-01-25T08:05:28.991Z,7.15
2023-01-25T08:06:11.892Z,7.11
2023-01-25T08:06:52.135Z,7.07
2023-01-25T08:07:31.932Z,7.08
2023-01-25T08:08:12.015Z,7.21
2023-01-25T08:08:54.933Z,7.18
2023-01-25T08:09:35.012Z,7.19
2023-01-25T08:10:15.927Z,7.03
2023-01-25T08:10:55.943Z,6.98
2023-01-25T08:11:37.890Z,7.11
2023-01-25T08:12:18.496Z,7.18
2023-01-25T08:12:58.914Z,7.16
2023-01-25T08:13:39.021Z,7.08
2023-01-25T08:14:19.912Z,7.08
2023-01-25T08:15:00.081Z,7.11
2023-01-25T08:15:39.920Z,7.01
2023-01-25T08:16:21.062Z,7.05
2023-01-25T08:17:00.890Z,6.91
2023-01-25T08:17:41.006Z,6.94
2023-01-25T08:18:20.877Z,6.87
2023-01-25T08:19:04.016Z,6.82
2023-01-25T08:19:43.865Z,6.79
2023-01-25T08:20:24.148Z,6.81
2023-01-25T08:21:07.927Z,6.72
2023-01-25T08:21:48.978Z,6.85
2023-01-25T08:22:29.927Z,6.85
2023-01-25T08:23:09.941Z,6.91
2023-01-25T08:23:49.913Z,6.82
2023-01-25T08:24:29.995Z,6.83
2023-01-25T08:25:11.961Z,6.93
2023-01-25T08:25:52.176Z,6.92
2023-01-25T08:26:32.988Z,7.01
2023-01-25T08:27:12.950Z,6.95
2023-01-25T08:27:52.919Z,7.04
2023-01-25T08:28:33.038Z,7.11
2023-01-25T08:29:13.906Z,7.14
2023-01-25T08:29:54.936Z,7.16
2023-01-25T08:30:34.981Z,7.19
2023-01-25T08:31:30.028Z,7.04
2023-01-25T08:32:12.945Z,7.19
2023-01-25T08:32:52.962Z,7.18
2023-01-25T08:33:33.897Z,7.19
2023-01-25T08:34:14.939Z,7.13
2023-01-25T08:34:54.885Z,7.21
2023-01-25T08:35:36.686Z,7.19
2023-01-25T08:36:17.868Z,7.11
2023-01-25T08:36:57.924Z,7.18
2023-01-25T08:37:38.878Z,7.10
2023-01-25T08:38:18.921Z,7.12
2023-01-25T08:39:11.881Z,7.01
2023-01-25T08:39:51.960Z,7.00
2023-01-25T08:40:31.876Z,7.01
2023-01-25T08:41:23.983Z,7.00
2023-01-25T08:42:04.866Z,6.93
2023-01-25T08:42:51.918Z,6.96
2023-01-25T08:43:45.875Z,6.87
2023-01-25T08:44:39.927Z,6.99
2023-01-25T08:45:33.839Z,7.01
2023-01-25T08:46:31.386Z,7.00
2023-01-25T08:47:25.870Z,6.85
2023-01-25T08:48:12.870Z,6.80
2023-01-25T08:48:46.913Z,6.82
2023-01-25T08:49:33.850Z,6.81
2023-01-25T08:50:08.335Z,6.79
2023-01-25T08:50:55.882Z,6.62
2023-01-25T08:51:37.941Z,6.74
2023-01-25T08:52:21.954Z,6.71
2023-01-25T08:53:02.955Z,6.72
2023-01-25T08:53:42.887Z,6.69
2023-01-25T08:54:24.368Z,6.60
2023-01-25T08:55:04.863Z,6.60
2023-01-25T08:55:45.977Z,6.68
2023-01-25T08:56:25.861Z,6.51
2023-01-25T08:57:07.887Z,6.51
2023-01-25T08:57:47.850Z,6.51
2023-01-25T08:58:27.884Z,6.39
2023-01-25T08:59:07.944Z,6.30
2023-01-25T08:59:48.985Z,6.49
2023-01-25T09:00:29.895Z,6.47
2023-01-25T09:01:13.048Z,6.42
2023-01-25T09:01:52.895Z,6.43
2023-01-25T09:02:33.947Z,6.39
2023-01-25T09:03:14.858Z,6.47
2023-01-25T09:03:57.996Z,6.54
2023-01-25T09:04:38.886Z,6.59
2023-01-25T09:05:18.872Z,6.57
2023-01-25T09:06:00.858Z,6.54
2023-01-25T09:06:40.939Z,6.60
2023-01-25T09:07:20.866Z,6.54
2023-01-25T09:08:01.930Z,6.50
2023-01-25T09:08:42.841Z,6.61
2023-01-25T09:09:24.862Z,6.52
2023-01-25T09:10:05.888Z,6.58
2023-01-25T09:10:45.897Z,6.43
2023-01-25T09:11:28.858Z,6.59
2023-01-25T09:12:09.935Z,6.49
2023-01-25T09:12:49.883Z,6.40
2023-01-25T09:13:29.944Z,6.33
2023-01-25T09:14:10.856Z,6.52
2023-01-25T09:14:50.864Z,6.65
2023-01-25T09:15:30.837Z,6.67
2023-01-25T09:16:14.037Z,6.60
2023-01-25T09:16:54.869Z,6.56
2023-01-25T09:17:38.853Z,6.67
2023-01-25T09:18:18.842Z,6.73
2023-01-25T09:18:58.944Z,6.80
2023-01-25T09:19:38.856Z,6.68
2023-01-25T09:20:18.912Z,6.65
2023-01-25T09:21:00.861Z,6.60
2023-01-25T09:21:41.969Z,6.62
2023-01-25T09:22:21.874Z,6.48
2023-01-25T09:23:02.877Z,6.54
2023-01-25T09:23:51.514Z,6.55
2023-01-25T09:24:45.092Z,6.58
2023-01-25T09:25:24.851Z,6.60
2023-01-25T09:26:16.876Z,6.76
2023-01-25T09:26:59.460Z,6.83
2023-01-25T09:27:46.832Z,6.83
2023-01-25T09:28:20.522Z,6.77
2023-01-25T09:29:08.941Z,6.59
2023-01-25T09:29:46.452Z,6.61
2023-01-25T09:30:56.015Z,6.59
2023-01-25T09:31:46.939Z,6.69
2023-01-25T09:32:27.045Z,6.55
2023-01-25T09:33:10.841Z,6.71
2023-01-25T09:33:52.069Z,6.63
2023-01-25T09:34:31.813Z,6.70
2023-01-25T09:35:12.920Z,6.68
2023-01-25T09:35:56.805Z,6.56
2023-01-25T09:36:36.861Z,6.70